createdAt,value
2019-01-13T00:00:22.090Z,93.30
2019-01-13T00:01:22.079Z,92.99
2019-01-13T00:02:22.063Z,92.99
2019-01-13T00:03:22.067Z,93.10
2019-01-13T00:04:22.041Z,93.10
2019-01-13T00:05:22.037Z,92.79
2019-01-13T00:06:22.023Z,93.37
2019-01-13T00:07:22.013Z,93.41
2019-01-13T00:08:22.007Z,92.99
2019-01-13T00:09:21.993Z,93.30
2019-01-13T00:10:21.982Z,92.89
2019-01-13T00:11:21.965Z,92.99
2019-01-13T00:12:21.954Z,93.10
2019-01-13T00:13:21.956Z,92.79
2019-01-13T00:14:21.942Z,92.99
2019-01-13T00:15:21.923Z,92.99
2019-01-13T00:16:21.916Z,93.10
2019-01-13T00:17:21.905Z,92.99
2019-01-13T00:18:21.904Z,93.10
2019-01-13T00:19:21.917Z,93.72
2019-01-13T00:20:21.870Z,94.44
2019-01-13T00:21:21.913Z,92.74
2019-01-13T00:22:21.851Z,92.64
2019-01-13T00:23:21.836Z,92.79
2019-01-13T00:24:21.841Z,92.54
2019-01-13T00:25:21.818Z,92.44
2019-01-13T00:26:21.803Z,92.58
2019-01-13T00:27:21.799Z,92.54
2019-01-13T00:28:21.787Z,92.58
2019-01-13T00:29:21.793Z,93.26
2019-01-13T00:30:21.765Z,92.85
2019-01-13T00:31:21.749Z,93.20
2019-01-13T00:32:21.742Z,93.20
2019-01-13T00:33:21.732Z,94.34
2019-01-13T00:34:21.719Z,93.93
2019-01-13T00:35:21.715Z,94.03
2019-01-13T00:36:21.694Z,94.13
2019-01-13T00:37:21.684Z,93.82
2019-01-13T00:38:21.679Z,94.34
2019-01-13T00:39:21.667Z,94.23
2019-01-13T00:40:21.660Z,95.06
2019-01-13T00:41:21.654Z,94.65
2019-01-13T00:42:21.630Z,96.09
2019-01-13T00:43:21.624Z,96.30
2019-01-13T00:44:21.613Z,96.20
2019-01-13T00:45:21.597Z,96.72
2019-01-13T00:46:21.629Z,96.92
2019-01-13T00:47:21.582Z,95.89
2019-01-13T00:48:21.568Z,95.89
2019-01-13T00:49:21.553Z,95.78
2019-01-13T00:50:21.542Z,95.99
2019-01-13T00:51:21.531Z,96.03
2019-01-13T00:52:21.530Z,96.34
2019-01-13T00:53:21.510Z,96.55
2019-01-13T00:54:21.501Z,96.76
2019-01-13T00:55:21.496Z,96.97
2019-01-13T00:56:21.477Z,97.33
2019-01-13T00:57:21.480Z,97.49
2019-01-13T00:58:21.455Z,97.79
2019-01-13T00:59:21.453Z,97.28
2019-01-13T01:00:26.398Z,98.21
2019-01-13T01:01:22.424Z,98.21
2019-01-13T01:02:21.418Z,97.79
2019-01-13T01:03:21.403Z,98.21
2019-01-13T01:04:21.395Z,98.10
2019-01-13T01:05:21.385Z,97.79
2019-01-13T01:06:21.381Z,98.31
2019-01-13T01:07:21.363Z,97.69
2019-01-13T01:08:21.352Z,98.10
2019-01-13T01:09:21.341Z,98.41
2019-01-13T01:10:21.334Z,98.52
2019-01-13T01:11:21.353Z,98.35
2019-01-13T01:12:21.306Z,98.25
2019-01-13T01:13:21.295Z,98.05
2019-01-13T01:14:21.286Z,98.56
2019-01-13T01:15:21.276Z,98.56
2019-01-13T01:16:21.265Z,98.66
2019-01-13T01:17:21.278Z,98.83
2019-01-13T01:18:21.239Z,98.97
2019-01-13T01:19:21.234Z,98.56
2019-01-13T01:20:21.217Z,98.25
2019-01-13T01:21:21.212Z,98.15
2019-01-13T01:22:21.200Z,98.35
2019-01-13T01:23:21.194Z,98.21
2019-01-13T01:24:21.173Z,98.56
2019-01-13T01:25:21.167Z,97.84
2019-01-13T01:26:21.155Z,98.00
2019-01-13T01:27:21.149Z,97.17
2019-01-13T01:28:21.135Z,97.63
2019-01-13T01:29:21.127Z,97.42
2019-01-13T01:30:21.113Z,97.22
2019-01-13T01:31:21.103Z,96.34
2019-01-13T01:32:21.095Z,96.45
2019-01-13T01:33:25.929Z,96.45
2019-01-13T01:34:22.068Z,96.19
2019-01-13T01:35:21.056Z,95.83
2019-01-13T01:36:21.045Z,95.87
2019-01-13T01:37:21.032Z,96.14
2019-01-13T01:38:21.033Z,95.00
2019-01-13T01:39:21.010Z,95.25
2019-01-13T01:40:21.000Z,94.94
2019-01-13T01:41:20.988Z,95.00
2019-01-13T01:42:20.982Z,94.79
2019-01-13T01:43:20.978Z,95.21
2019-01-13T01:44:20.961Z,94.94
2019-01-13T01:45:20.944Z,94.84
2019-01-13T01:46:20.940Z,94.32
2019-01-13T01:47:20.923Z,93.97
2019-01-13T01:48:20.913Z,94.32
2019-01-13T01:49:20.916Z,94.28
2019-01-13T01:50:20.889Z,94.32
2019-01-13T01:51:20.885Z,94.28
2019-01-13T01:52:20.875Z,94.38
2019-01-13T01:53:20.857Z,94.28
2019-01-13T01:54:20.860Z,94.18
2019-01-13T01:55:20.841Z,94.28
2019-01-13T01:56:20.825Z,93.66
2019-01-13T01:57:20.819Z,94.48
2019-01-13T01:58:20.809Z,93.45
2019-01-13T01:59:20.825Z,93.24
2019-01-13T02:00:20.783Z,93.04
2019-01-13T02:01:20.777Z,92.93
2019-01-13T02:02:20.765Z,92.83
2019-01-13T02:03:20.765Z,93.24
2019-01-13T02:04:20.742Z,93.14
2019-01-13T02:05:20.743Z,93.04
2019-01-13T02:06:20.763Z,93.04
2019-01-13T02:07:20.711Z,93.14
2019-01-13T02:08:20.697Z,92.72
2019-01-13T02:09:20.687Z,92.52
2019-01-13T02:10:20.687Z,93.04
2019-01-13T02:11:20.668Z,93.04
2019-01-13T02:12:20.661Z,93.35
2019-01-13T02:13:20.651Z,92.63
2019-01-13T02:14:20.635Z,92.52
2019-01-13T02:15:20.633Z,92.63
2019-01-13T02:16:20.614Z,93.04
2019-01-13T02:17:20.607Z,93.04
2019-01-13T02:18:20.595Z,92.72
2019-01-13T02:19:20.580Z,92.93
2019-01-13T02:20:20.570Z,92.63
2019-01-13T02:21:20.558Z,92.83
2019-01-13T02:22:20.546Z,93.04
2019-01-13T02:23:20.563Z,93.04
2019-01-13T02:24:20.525Z,92.93
2019-01-13T02:25:20.510Z,93.04
2019-01-13T02:26:20.505Z,93.04
2019-01-13T02:27:20.489Z,92.93
2019-01-13T02:28:20.482Z,93.04
2019-01-13T02:29:20.519Z,92.87
2019-01-13T02:30:20.466Z,92.72
2019-01-13T02:31:20.457Z,93.14
2019-01-13T02:32:20.441Z,92.93
2019-01-13T02:33:20.422Z,93.04
2019-01-13T02:34:20.421Z,93.66
2019-01-13T02:35:20.416Z,93.45
2019-01-13T02:36:20.396Z,94.59
2019-01-13T02:37:20.387Z,93.45
2019-01-13T02:38:20.369Z,93.87
2019-01-13T02:39:20.392Z,93.97
2019-01-13T02:40:20.348Z,93.24
2019-01-13T02:41:20.338Z,94.07
2019-01-13T02:42:20.331Z,94.28
2019-01-13T02:43:20.316Z,94.48
2019-01-13T02:44:20.313Z,94.18
2019-01-13T02:45:20.307Z,94.18
2019-01-13T02:46:20.288Z,93.97
2019-01-13T02:47:20.274Z,93.97
2019-01-13T02:48:20.268Z,94.48
2019-01-13T02:49:20.257Z,94.48
2019-01-13T02:50:20.271Z,93.87
2019-01-13T02:51:20.234Z,94.07
2019-01-13T02:52:20.223Z,94.28
2019-01-13T02:53:20.214Z,94.48
2019-01-13T02:54:20.205Z,94.07
2019-01-13T02:55:20.191Z,94.38
2019-01-13T02:56:20.188Z,94.28
2019-01-13T02:57:20.170Z,95.10
2019-01-13T02:58:20.162Z,96.03
2019-01-13T02:59:20.149Z,95.42
2019-01-13T03:00:20.142Z,96.45
2019-01-13T03:01:20.137Z,96.45
2019-01-13T03:02:20.110Z,97.42
2019-01-13T03:03:20.114Z,97.22
2019-01-13T03:04:20.147Z,97.49
2019-01-13T03:05:20.079Z,97.59
2019-01-13T03:06:20.078Z,97.89
2019-01-13T03:07:20.062Z,98.00
2019-01-13T03:08:20.059Z,98.25
2019-01-13T03:09:20.035Z,98.56
2019-01-13T03:10:20.030Z,98.56
2019-01-13T03:11:20.021Z,99.49
2019-01-13T03:12:20.003Z,98.97
2019-01-13T03:13:20.003Z,98.87
2019-01-13T03:14:19.981Z,99.08
2019-01-13T03:15:20.072Z,98.77
2019-01-13T03:16:19.972Z,99.18
2019-01-13T03:17:19.951Z,98.46
2019-01-13T03:18:19.946Z,99.08
2019-01-13T03:19:19.934Z,99.08
2019-01-13T03:20:19.928Z,98.66
2019-01-13T03:21:19.911Z,98.56
2019-01-13T03:22:19.895Z,98.97
2019-01-13T03:23:19.903Z,99.08
2019-01-13T03:24:19.879Z,98.87
2019-01-13T03:25:19.868Z,98.87
2019-01-13T03:26:19.863Z,99.39
2019-01-13T03:27:19.840Z,98.56
2019-01-13T03:28:19.895Z,99.08
2019-01-13T03:29:19.819Z,99.18
2019-01-13T03:30:19.833Z,99.49
2019-01-13T03:31:19.799Z,99.60
2019-01-13T03:32:19.789Z,99.91
2019-01-13T03:33:19.781Z,99.70
2019-01-13T03:34:19.778Z,99.70
2019-01-13T03:35:19.758Z,99.29
2019-01-13T03:36:19.749Z,99.49
2019-01-13T03:37:19.738Z,99.39
2019-01-13T03:38:19.721Z,99.99
2019-01-13T03:39:19.737Z,99.99
2019-01-13T03:40:19.704Z,99.99
2019-01-13T03:41:19.688Z,99.99
2019-01-13T03:42:19.683Z,99.99
2019-01-13T03:43:19.672Z,99.99
2019-01-13T03:44:19.661Z,99.99
2019-01-13T03:45:19.660Z,99.99
2019-01-13T03:46:19.634Z,99.70
2019-01-13T03:47:19.624Z,99.99
2019-01-13T03:48:19.619Z,99.39
2019-01-13T03:49:19.609Z,98.87
2019-01-13T03:50:19.613Z,98.83
2019-01-13T03:51:19.597Z,99.39
2019-01-13T03:52:19.574Z,99.44
2019-01-13T03:53:19.565Z,99.14
2019-01-13T03:54:19.553Z,99.04
2019-01-13T03:55:19.543Z,98.62
2019-01-13T03:56:19.535Z,98.83
2019-01-13T03:57:19.523Z,98.87
2019-01-13T03:58:19.510Z,98.87
2019-01-13T03:59:19.502Z,98.83
2019-01-13T04:00:19.507Z,98.77
2019-01-13T04:01:19.477Z,99.04
2019-01-13T04:02:19.463Z,98.41
2019-01-13T04:03:19.455Z,98.66
2019-01-13T04:04:19.443Z,98.62
2019-01-13T04:05:19.440Z,98.93
2019-01-13T04:06:19.454Z,98.87
2019-01-13T04:07:19.407Z,98.97
2019-01-13T04:08:19.404Z,98.97
2019-01-13T04:09:19.391Z,98.97
2019-01-13T04:10:19.376Z,98.93
2019-01-13T04:11:19.406Z,98.77
2019-01-13T04:12:19.354Z,99.39
2019-01-13T04:13:19.343Z,99.04
2019-01-13T04:14:19.336Z,98.97
2019-01-13T04:15:19.321Z,98.66
2019-01-13T04:16:19.312Z,98.66
2019-01-13T04:17:19.312Z,98.62
2019-01-13T04:18:19.300Z,98.93
2019-01-13T04:19:19.283Z,99.04
2019-01-13T04:20:19.267Z,98.77
2019-01-13T04:21:19.258Z,98.83
2019-01-13T04:22:19.251Z,98.97
2019-01-13T04:23:19.277Z,99.34
2019-01-13T04:24:19.225Z,99.08
2019-01-13T04:25:19.214Z,99.18
2019-01-13T04:26:19.206Z,98.83
2019-01-13T04:27:19.189Z,98.83
2019-01-13T04:28:19.180Z,98.83
2019-01-13T04:29:19.177Z,98.41
2019-01-13T04:30:19.158Z,98.72
2019-01-13T04:31:26.354Z,98.72
2019-01-13T04:32:20.148Z,98.93
2019-01-13T04:33:19.132Z,98.52
2019-01-13T04:34:19.125Z,98.83
2019-01-13T04:35:19.105Z,99.14
2019-01-13T04:36:19.102Z,99.86
2019-01-13T04:37:19.089Z,99.91
2019-01-13T04:38:19.075Z,99.14
2019-01-13T04:39:19.105Z,99.55
2019-01-13T04:40:19.053Z,99.76
2019-01-13T04:41:19.047Z,99.99
2019-01-13T04:42:19.038Z,99.49
2019-01-13T04:43:19.023Z,99.80
2019-01-13T04:44:19.017Z,99.34
2019-01-13T04:45:19.009Z,99.24
2019-01-13T04:46:19.005Z,99.39
2019-01-13T04:47:18.978Z,99.91
2019-01-13T04:48:18.974Z,99.80
2019-01-13T04:49:18.973Z,99.86
2019-01-13T04:50:18.958Z,99.34
2019-01-13T04:51:18.941Z,99.34
2019-01-13T04:52:18.931Z,99.44
2019-01-13T04:53:18.923Z,99.14
2019-01-13T04:54:18.918Z,99.76
2019-01-13T04:55:18.898Z,99.44
2019-01-13T04:56:18.899Z,99.14
2019-01-13T04:57:18.876Z,99.34
2019-01-13T04:58:18.868Z,99.44
2019-01-13T04:59:18.850Z,99.65
2019-01-13T05:00:18.856Z,99.65
2019-01-13T05:01:18.833Z,99.86
2019-01-13T05:02:18.830Z,99.76
2019-01-13T05:03:18.810Z,99.24
2019-01-13T05:04:18.810Z,99.44
2019-01-13T05:05:18.790Z,99.29
2019-01-13T05:06:18.775Z,99.34
2019-01-13T05:07:18.800Z,98.93
2019-01-13T05:08:18.770Z,99.34
2019-01-13T05:09:18.746Z,99.14
2019-01-13T05:10:18.735Z,98.83
2019-01-13T05:11:18.721Z,98.72
2019-01-13T05:12:18.712Z,98.52
2019-01-13T05:13:18.740Z,98.62
2019-01-13T05:14:18.694Z,99.24
2019-01-13T05:15:18.679Z,99.04
2019-01-13T05:16:18.668Z,98.72
2019-01-13T05:17:18.659Z,98.72
2019-01-13T05:18:18.653Z,99.14
2019-01-13T05:19:18.677Z,99.24
2019-01-13T05:20:18.631Z,99.86
2019-01-13T05:21:18.620Z,99.96
2019-01-13T05:22:18.603Z,99.44
2019-01-13T05:23:18.601Z,99.65
2019-01-13T05:24:18.588Z,99.96
2019-01-13T05:25:18.587Z,99.55
2019-01-13T05:26:19.636Z,99.14
2019-01-13T05:27:18.550Z,99.04
2019-01-13T05:28:18.539Z,99.04
2019-01-13T05:29:18.531Z,98.62
2019-01-13T05:30:18.531Z,98.31
2019-01-13T05:31:18.515Z,98.52
2019-01-13T05:32:18.499Z,99.04
2019-01-13T05:33:18.487Z,98.93
2019-01-13T05:34:18.509Z,99.34
2019-01-13T05:35:18.465Z,99.34
2019-01-13T05:36:18.465Z,99.86
2019-01-13T05:37:18.450Z,99.55
2019-01-13T05:38:18.438Z,99.39
2019-01-13T05:39:18.423Z,99.39
2019-01-13T05:40:18.453Z,99.49
2019-01-13T05:41:18.403Z,99.70
2019-01-13T05:42:18.395Z,99.99
2019-01-13T05:43:18.380Z,99.99
2019-01-13T05:44:18.385Z,99.18
2019-01-13T05:45:18.364Z,99.39
2019-01-13T05:46:18.353Z,99.99
2019-01-13T05:47:18.355Z,99.49
2019-01-13T05:48:18.332Z,99.76
2019-01-13T05:49:18.320Z,99.39
2019-01-13T05:50:18.305Z,99.99
2019-01-13T05:51:18.305Z,99.49
2019-01-13T05:52:18.288Z,99.44
2019-01-13T05:53:18.313Z,99.76
2019-01-13T05:54:18.266Z,99.49
2019-01-13T05:55:18.264Z,99.65
2019-01-13T05:56:18.247Z,98.93
2019-01-13T05:57:18.239Z,99.24
2019-01-13T05:58:18.226Z,99.14
2019-01-13T05:59:18.217Z,99.24
2019-01-13T06:00:18.202Z,99.14
2019-01-13T06:01:18.190Z,98.72
2019-01-13T06:02:18.190Z,99.18
2019-01-13T06:03:18.166Z,99.65
2019-01-13T06:04:18.166Z,99.70
2019-01-13T06:05:18.150Z,99.18
2019-01-13T06:06:18.139Z,99.70
2019-01-13T06:07:18.123Z,99.08
2019-01-13T06:08:18.132Z,99.70
2019-01-13T06:09:18.139Z,99.14
2019-01-13T06:10:18.100Z,98.93
2019-01-13T06:11:18.087Z,98.83
2019-01-13T06:12:18.075Z,98.83
2019-01-13T06:13:18.059Z,98.97
2019-01-13T06:14:18.049Z,98.83
2019-01-13T06:15:18.051Z,99.04
2019-01-13T06:16:18.034Z,99.24
2019-01-13T06:17:18.019Z,98.41
2019-01-13T06:18:18.006Z,98.52
2019-01-13T06:19:18.001Z,99.24
2019-01-13T06:20:17.989Z,98.83
2019-01-13T06:21:17.983Z,98.93
2019-01-13T06:22:17.969Z,99.04
2019-01-13T06:23:17.958Z,98.93
2019-01-13T06:24:17.943Z,98.83
2019-01-13T06:25:17.962Z,98.72
2019-01-13T06:26:17.923Z,98.87
2019-01-13T06:27:17.920Z,99.04
2019-01-13T06:28:17.911Z,98.83
2019-01-13T06:29:17.893Z,98.62
2019-01-13T06:30:17.892Z,98.83
2019-01-13T06:31:17.871Z,98.93
2019-01-13T06:32:17.857Z,98.93
2019-01-13T06:33:17.851Z,98.83
2019-01-13T06:34:17.842Z,98.93
2019-01-13T06:35:17.876Z,98.83
2019-01-13T06:36:17.815Z,99.04
2019-01-13T06:37:17.804Z,98.93
2019-01-13T06:38:17.799Z,99.14
2019-01-13T06:39:17.787Z,98.72
2019-01-13T06:40:17.780Z,98.52
2019-01-13T06:41:17.771Z,98.52
2019-01-13T06:42:17.753Z,98.41
2019-01-13T06:43:17.741Z,98.52
2019-01-13T06:44:17.735Z,98.41
2019-01-13T06:45:17.732Z,98.31
2019-01-13T06:46:17.720Z,98.10
2019-01-13T06:47:17.701Z,97.59
2019-01-13T06:48:17.687Z,97.79
2019-01-13T06:49:17.675Z,97.59
2019-01-13T06:50:17.664Z,98.21
2019-01-13T06:51:17.672Z,98.10
2019-01-13T06:52:17.689Z,97.89
2019-01-13T06:53:17.633Z,98.31
2019-01-13T06:54:17.622Z,98.21
2019-01-13T06:55:17.619Z,98.00
2019-01-13T06:56:17.606Z,97.07
2019-01-13T06:57:17.596Z,97.38
2019-01-13T06:58:17.589Z,97.13
2019-01-13T06:59:17.569Z,96.92
2019-01-13T07:00:17.564Z,97.17
2019-01-13T07:01:17.553Z,96.61
2019-01-13T07:02:17.542Z,96.72
2019-01-13T07:03:17.537Z,96.82
2019-01-13T07:04:17.516Z,96.61
2019-01-13T07:05:17.511Z,96.24
2019-01-13T07:06:17.494Z,96.41
2019-01-13T07:07:17.485Z,96.41
2019-01-13T07:08:17.487Z,96.30
2019-01-13T07:09:17.495Z,96.41
2019-01-13T07:10:17.451Z,96.30
2019-01-13T07:11:17.440Z,96.72
2019-01-13T07:12:17.429Z,96.20
2019-01-13T07:13:17.426Z,96.41
2019-01-13T07:14:17.413Z,96.09
2019-01-13T07:15:17.413Z,95.57
2019-01-13T07:16:17.392Z,95.89
2019-01-13T07:17:17.386Z,95.89
2019-01-13T07:18:17.371Z,96.09
2019-01-13T07:19:17.355Z,95.78
2019-01-13T07:20:17.357Z,95.99
2019-01-13T07:21:17.347Z,95.89
2019-01-13T07:22:17.322Z,95.78
2019-01-13T07:23:17.317Z,95.78
2019-01-13T07:24:17.311Z,95.37
2019-01-13T07:25:17.295Z,95.74
2019-01-13T07:26:17.280Z,95.37
2019-01-13T07:27:17.273Z,96.20
2019-01-13T07:28:17.261Z,95.68
2019-01-13T07:29:17.254Z,95.57
2019-01-13T07:30:17.237Z,95.89
2019-01-13T07:31:17.230Z,95.89
2019-01-13T07:32:17.228Z,95.89
2019-01-13T07:33:17.203Z,95.99
2019-01-13T07:34:17.192Z,95.89
2019-01-13T07:35:17.199Z,95.57
2019-01-13T07:36:17.177Z,95.57
2019-01-13T07:37:17.165Z,96.15
2019-01-13T07:38:17.157Z,95.89
2019-01-13T07:39:17.139Z,95.99
2019-01-13T07:40:17.135Z,96.20
2019-01-13T07:41:17.145Z,95.78
2019-01-13T07:42:17.111Z,96.09
2019-01-13T07:43:17.095Z,95.74
2019-01-13T07:44:17.578Z,96.09
2019-01-13T07:45:17.079Z,95.22
2019-01-13T07:46:17.068Z,95.12
2019-01-13T07:47:17.076Z,95.06
2019-01-13T07:48:17.049Z,94.96
2019-01-13T07:49:17.035Z,95.06
2019-01-13T07:50:17.024Z,94.81
2019-01-13T07:51:17.012Z,95.06
2019-01-13T07:52:17.004Z,94.54
2019-01-13T07:53:16.994Z,94.85
2019-01-13T07:54:16.980Z,94.81
2019-01-13T07:55:16.970Z,94.81
2019-01-13T07:56:16.955Z,94.96
2019-01-13T07:57:16.947Z,95.12
2019-01-13T07:58:16.950Z,95.06
2019-01-13T07:59:16.929Z,94.60
2019-01-13T08:00:16.911Z,95.02
2019-01-13T08:01:16.915Z,95.02
2019-01-13T08:02:17.994Z,94.71
2019-01-13T08:03:16.883Z,94.92
2019-01-13T08:04:16.869Z,94.09
2019-01-13T08:05:16.857Z,94.19
2019-01-13T08:06:16.856Z,94.34
2019-01-13T08:07:16.844Z,94.34
2019-01-13T08:08:16.829Z,94.19
2019-01-13T08:09:16.849Z,94.29
2019-01-13T08:10:16.807Z,94.60
2019-01-13T08:11:16.796Z,94.19
2019-01-13T08:12:16.784Z,94.40
2019-01-13T08:13:16.770Z,94.19
2019-01-13T08:14:16.770Z,94.25
2019-01-13T08:15:16.755Z,93.88
2019-01-13T08:16:16.741Z,94.09
2019-01-13T08:17:16.727Z,94.19
2019-01-13T08:18:16.714Z,94.25
2019-01-13T08:19:16.702Z,94.19
2019-01-13T08:20:16.723Z,94.09
2019-01-13T08:21:16.683Z,94.15
2019-01-13T08:22:16.671Z,94.09
2019-01-13T08:23:16.663Z,94.04
2019-01-13T08:24:16.655Z,93.94
2019-01-13T08:25:16.644Z,94.71
2019-01-13T08:26:16.661Z,94.67
2019-01-13T08:27:16.624Z,93.94
2019-01-13T08:28:16.605Z,94.25
2019-01-13T08:29:16.600Z,94.04
2019-01-13T08:30:16.594Z,94.15
2019-01-13T08:31:16.579Z,94.15
2019-01-13T08:32:16.593Z,94.97
2019-01-13T08:33:16.553Z,94.87
2019-01-13T08:34:16.545Z,94.77
2019-01-13T08:35:16.531Z,94.35
2019-01-13T08:36:16.543Z,94.21
2019-01-13T08:37:16.515Z,94.21
2019-01-13T08:38:16.511Z,92.66
2019-01-13T08:39:16.488Z,92.66
2019-01-13T08:40:16.480Z,94.00
2019-01-13T08:41:16.474Z,93.12
2019-01-13T08:42:16.505Z,93.12
2019-01-13T08:43:16.462Z,92.80
2019-01-13T08:44:16.442Z,93.59
2019-01-13T08:45:16.421Z,92.86
2019-01-13T08:46:16.411Z,93.18
2019-01-13T08:47:16.417Z,92.97
2019-01-13T08:48:16.388Z,93.49
2019-01-13T08:49:16.383Z,94.35
2019-01-13T08:50:16.368Z,94.35
2019-01-13T08:51:16.362Z,93.90
2019-01-13T08:52:16.355Z,94.04
2019-01-13T08:53:16.337Z,94.00
2019-01-13T08:54:16.330Z,93.69
2019-01-13T08:55:16.317Z,94.10
2019-01-13T08:56:16.306Z,94.15
2019-01-13T08:57:16.302Z,94.35
2019-01-13T08:58:16.286Z,94.35
2019-01-13T08:59:16.273Z,94.25
2019-01-13T09:00:16.258Z,94.35
2019-01-13T09:01:16.261Z,94.15
2019-01-13T09:02:16.284Z,94.10
2019-01-13T09:03:16.231Z,94.00
2019-01-13T09:04:16.250Z,93.69
2019-01-13T09:05:16.240Z,94.00
2019-01-13T09:06:16.207Z,94.15
2019-01-13T09:07:16.186Z,94.10
2019-01-13T09:08:16.178Z,94.10
2019-01-13T09:09:16.175Z,94.21
2019-01-13T09:10:16.151Z,94.52
2019-01-13T09:11:16.137Z,94.72
2019-01-13T09:12:16.128Z,95.07
2019-01-13T09:13:16.129Z,94.97
2019-01-13T09:14:16.106Z,95.70
2019-01-13T09:15:16.095Z,95.55
2019-01-13T09:16:16.115Z,95.70
2019-01-13T09:17:16.076Z,95.90
2019-01-13T09:18:16.070Z,95.80
2019-01-13T09:19:16.050Z,96.42
2019-01-13T09:20:16.042Z,96.42
2019-01-13T09:21:17.491Z,96.94
2019-01-13T09:22:16.035Z,97.04
2019-01-13T09:23:16.008Z,97.04
2019-01-13T09:24:15.995Z,97.55
2019-01-13T09:25:15.993Z,98.07
2019-01-13T09:26:16.041Z,98.18
2019-01-13T09:27:16.000Z,97.86
2019-01-13T09:28:15.952Z,97.66
2019-01-13T09:29:15.940Z,97.97
2019-01-13T09:30:15.939Z,98.49
2019-01-13T09:31:15.934Z,98.07
2019-01-13T09:32:15.914Z,97.76
2019-01-13T09:33:15.905Z,98.49
2019-01-13T09:34:15.899Z,99.00
2019-01-13T09:35:15.881Z,98.69
2019-01-13T09:36:15.870Z,97.55
2019-01-13T09:37:15.857Z,97.14
2019-01-13T09:38:15.850Z,97.14
2019-01-13T09:39:15.833Z,97.86
2019-01-13T09:40:15.831Z,97.76
2019-01-13T09:41:15.811Z,97.81
2019-01-13T09:42:23.449Z,98.07
2019-01-13T09:43:15.797Z,97.91
2019-01-13T09:44:15.777Z,98.01
2019-01-13T09:45:23.484Z,97.76
2019-01-13T09:46:15.761Z,97.81
2019-01-13T09:47:15.755Z,97.81
2019-01-13T09:48:15.742Z,97.91
2019-01-13T09:49:15.731Z,97.97
2019-01-13T09:50:15.773Z,98.69
2019-01-13T09:51:15.702Z,98.58
2019-01-13T09:52:15.700Z,98.38
2019-01-13T09:53:15.684Z,98.28
2019-01-13T09:54:15.669Z,98.38
2019-01-13T09:55:15.664Z,98.49
2019-01-13T09:56:15.654Z,98.38
2019-01-13T09:57:15.659Z,98.49
2019-01-13T09:58:15.632Z,98.79
2019-01-13T09:59:15.614Z,99.47
2019-01-13T10:00:15.610Z,98.85
2019-01-13T10:01:15.611Z,97.72
2019-01-13T10:02:15.588Z,96.99
2019-01-13T10:03:15.606Z,98.13
2019-01-13T10:04:15.567Z,97.92
2019-01-13T10:05:15.555Z,97.97
2019-01-13T10:06:17.035Z,98.02
2019-01-13T10:07:15.538Z,98.18
2019-01-13T10:08:15.522Z,98.18
2019-01-13T10:09:15.528Z,97.86
2019-01-13T10:10:15.496Z,98.69
2019-01-13T10:11:15.489Z,98.28
2019-01-13T10:12:15.475Z,98.38
2019-01-13T10:13:15.463Z,98.38
2019-01-13T10:14:15.464Z,98.90
2019-01-13T10:15:15.441Z,98.38
2019-01-13T10:16:15.434Z,98.90
2019-01-13T10:17:15.425Z,99.06
2019-01-13T10:18:15.421Z,98.33
2019-01-13T10:19:15.410Z,98.23
2019-01-13T10:20:15.392Z,98.54
2019-01-13T10:21:15.375Z,98.13
2019-01-13T10:22:15.381Z,98.58
2019-01-13T10:23:15.392Z,98.18
2019-01-13T10:24:15.341Z,98.49
2019-01-13T10:25:15.337Z,98.79
2019-01-13T10:26:15.321Z,98.90
2019-01-13T10:27:15.315Z,98.90
2019-01-13T10:28:15.299Z,98.79
2019-01-13T10:29:15.303Z,98.69
2019-01-13T10:30:15.283Z,99.10
2019-01-13T10:31:15.275Z,99.00
2019-01-13T10:32:15.263Z,98.74
2019-01-13T10:33:15.250Z,98.49
2019-01-13T10:34:15.242Z,98.38
2019-01-13T10:35:15.221Z,98.74
2019-01-13T10:36:15.213Z,98.63
2019-01-13T10:37:15.218Z,98.69
2019-01-13T10:38:15.189Z,98.38
2019-01-13T10:39:15.192Z,98.38
2019-01-13T10:40:15.171Z,98.74
2019-01-13T10:41:15.172Z,98.90
2019-01-13T10:42:15.277Z,98.94
2019-01-13T10:43:15.134Z,99.25
2019-01-13T10:44:15.124Z,98.79
2019-01-13T10:45:15.120Z,98.79
2019-01-13T10:46:15.111Z,99.15
2019-01-13T10:47:15.095Z,98.84
2019-01-13T10:48:15.136Z,98.53
2019-01-13T10:49:15.078Z,98.90
2019-01-13T10:50:15.069Z,98.90
2019-01-13T10:51:15.056Z,99.15
2019-01-13T10:52:15.051Z,98.79
2019-01-13T10:53:15.026Z,99.10
2019-01-13T10:54:15.020Z,99.00
2019-01-13T10:55:15.009Z,99.00
2019-01-13T10:56:15.056Z,98.90
2019-01-13T10:57:14.987Z,99.21
2019-01-13T10:58:14.972Z,98.22
2019-01-13T10:59:14.967Z,99.15
2019-01-13T11:00:14.950Z,98.84
2019-01-13T11:01:14.944Z,98.63
2019-01-13T11:02:14.946Z,98.43
2019-01-13T11:03:14.926Z,98.18
2019-01-13T11:04:14.914Z,98.32
2019-01-13T11:05:14.900Z,98.58
2019-01-13T11:06:14.885Z,98.79
2019-01-13T11:07:14.874Z,99.10
2019-01-13T11:08:14.887Z,98.58
2019-01-13T11:09:14.859Z,98.90
2019-01-13T11:10:14.850Z,98.84
2019-01-13T11:11:14.830Z,98.38
2019-01-13T11:12:14.833Z,99.21
2019-01-13T11:13:14.822Z,99.31
2019-01-13T11:14:14.800Z,98.58
2019-01-13T11:15:21.267Z,99.21
2019-01-13T11:16:15.774Z,98.65
2019-01-13T11:17:14.778Z,99.16
2019-01-13T11:18:14.768Z,98.75
2019-01-13T11:19:14.746Z,98.44
2019-01-13T11:20:14.747Z,98.23
2019-01-13T11:21:14.727Z,98.44
2019-01-13T11:22:14.715Z,98.75
2019-01-13T11:23:14.744Z,99.00
2019-01-13T11:24:14.695Z,98.90
2019-01-13T11:25:14.680Z,98.58
2019-01-13T11:26:14.668Z,98.18
2019-01-13T11:27:14.656Z,99.10
2019-01-13T11:28:14.650Z,99.31
2019-01-13T11:29:14.645Z,99.56
2019-01-13T11:30:14.632Z,99.56
2019-01-13T11:31:14.612Z,99.35
2019-01-13T11:32:14.603Z,99.56
2019-01-13T11:33:14.607Z,99.99
2019-01-13T11:34:14.599Z,99.99
2019-01-13T11:35:14.624Z,99.99
2019-01-13T11:36:14.561Z,99.99
2019-01-13T11:37:14.554Z,99.99
2019-01-13T11:38:14.536Z,99.99
2019-01-13T11:39:14.524Z,99.98
2019-01-13T11:40:14.518Z,99.99
2019-01-13T11:41:14.518Z,99.99
2019-01-13T11:42:14.497Z,99.98
2019-01-13T11:43:14.489Z,99.99
2019-01-13T11:44:14.470Z,99.99
2019-01-13T11:45:14.461Z,99.87
2019-01-13T11:46:14.468Z,99.99
2019-01-13T11:47:14.446Z,99.99
2019-01-13T11:48:14.433Z,99.99
2019-01-13T11:49:14.415Z,99.99
2019-01-13T11:50:14.411Z,99.99
2019-01-13T11:51:14.403Z,99.99
2019-01-13T11:52:14.391Z,99.99
2019-01-13T11:53:14.371Z,99.99
2019-01-13T11:54:14.366Z,99.99
2019-01-13T11:55:14.353Z,99.99
2019-01-13T11:56:14.369Z,99.99
2019-01-13T11:57:14.329Z,99.99
2019-01-13T11:58:15.771Z,99.98
2019-01-13T11:59:14.308Z,99.99
2019-01-13T12:00:14.305Z,99.66
2019-01-13T12:01:14.426Z,99.99
2019-01-13T12:02:14.281Z,99.99
2019-01-13T12:03:17.117Z,99.99
2019-01-13T12:04:14.259Z,99.99
2019-01-13T12:05:14.250Z,99.99
2019-01-13T12:06:14.245Z,99.99
2019-01-13T12:07:14.253Z,99.99
2019-01-13T12:08:14.214Z,99.99
2019-01-13T12:09:14.203Z,99.99
2019-01-13T12:10:14.187Z,99.99
2019-01-13T12:11:14.178Z,99.99
2019-01-13T12:12:14.167Z,99.99
2019-01-13T12:13:14.167Z,99.99
2019-01-13T12:14:14.149Z,99.99
2019-01-13T12:15:14.145Z,99.99
2019-01-13T12:16:14.128Z,99.99
2019-01-13T12:17:14.120Z,99.99
2019-01-13T12:18:14.101Z,99.99
2019-01-13T12:19:14.094Z,99.99
2019-01-13T12:20:14.079Z,99.99
2019-01-13T12:21:14.077Z,99.99
2019-01-13T12:22:14.081Z,99.99
2019-01-13T12:23:14.062Z,99.99
2019-01-13T12:24:14.046Z,99.99
2019-01-13T12:25:14.031Z,99.99
2019-01-13T12:26:14.022Z,99.99
2019-01-13T12:27:14.012Z,99.99
2019-01-13T12:28:14.012Z,99.99
2019-01-13T12:29:13.988Z,99.99
2019-01-13T12:30:13.977Z,99.99
2019-01-13T12:31:13.965Z,99.99
2019-01-13T12:32:13.953Z,99.99
2019-01-13T12:33:13.955Z,99.99
2019-01-13T12:34:13.938Z,99.99
2019-01-13T12:35:13.923Z,99.99
2019-01-13T12:36:13.915Z,99.99
2019-01-13T12:37:13.901Z,99.99
2019-01-13T12:38:13.896Z,99.99
2019-01-13T12:39:13.894Z,99.99
2019-01-13T12:40:13.871Z,99.99
2019-01-13T12:41:13.859Z,99.99
2019-01-13T12:42:13.842Z,99.99
2019-01-13T12:43:13.847Z,99.99
2019-01-13T12:44:13.865Z,99.99
2019-01-13T12:45:13.815Z,99.99
2019-01-13T12:46:13.800Z,99.99
2019-01-13T12:47:13.794Z,99.99
2019-01-13T12:48:13.777Z,99.99
2019-01-13T12:49:13.771Z,99.99
2019-01-13T12:50:13.764Z,99.99
2019-01-13T12:51:14.516Z,99.99
2019-01-13T12:52:13.734Z,99.99